1896 Hurricane NOT_NAMED (1896305N15301)


IBTrACS version v04r00. Visit IBTrACS website for data access.
Please direct all questions to the IBTrACS Q and A forum

Storm track - Intensity - Wind Radii - Intensity Data - Source Data - All data

Summary Information

Storm ID 1896305N15301
Start Oct 30 12Z
Max Intensity 75 kt (Nov 1 18Z)
End Nov 9 18Z
ATCF IDs
Track status Best track data.

Storm track plot

Map of storm track

Intensity plots

Map of storm track

Radial wind information

No radial wind information for this storm


Position and Intensity Table

BASIN ISO_TIME_________ NATURE LAT LON MLC WIND
degrees north degrees east kts
NA 1896-10-30 12:00:00 TS 15.00 -59.00 25
NA 15:00:00 TS 15.50 -58.86 27
NA 18:00:00 TS 16.00 -58.70 30
NA 21:00:00 TS 16.50 -58.51 32
NA 1896-10-31 00:00:00 TS 17.00 -58.30 35
NA 03:00:00 TS 17.50 -58.10 37
NA 06:00:00 TS 18.00 -57.90 40
NA 09:00:00 TS 18.50 -57.71 45
NA 12:00:00 TS 19.00 -57.50 50
NA 15:00:00 TS 19.50 -57.21 55
NA 18:00:00 TS 20.00 -56.90 60
NA 21:00:00 TS 20.50 -56.60 62
NA 1896-11-01 00:00:00 TS 21.00 -56.30 65
NA 03:00:00 TS 21.50 -56.01 67
NA 06:00:00 TS 22.00 -55.70 70
NA 09:00:00 TS 22.52 -55.37 70
NA 12:00:00 TS 23.00 -55.00 70
NA 15:00:00 TS 23.36 -54.56 72
NA 18:00:00 TS 23.70 -54.10 75
NA 21:00:00 TS 24.09 -53.64 75
NA 1896-11-02 00:00:00 TS 24.50 -53.20 75
NA 03:00:00 TS 24.91 -52.80 72
NA 06:00:00 TS 25.30 -52.40 70
NA 09:00:00 TS 25.67 -51.97 70
NA 12:00:00 TS 26.00 -51.50 70
NA 15:00:00 TS 26.26 -50.96 67
NA 18:00:00 TS 26.50 -50.40 65
NA 21:00:00 TS 26.75 -49.85 65
NA 1896-11-03 00:00:00 TS 27.00 -49.30 65
NA 03:00:00 TS 27.25 -48.76 65
NA 06:00:00 TS 27.50 -48.20 65
NA 09:00:00 TS 27.73 -47.64 65
NA 12:00:00 TS 28.00 -47.00 65
NA 15:00:00 TS 28.38 -46.24 65
NA 18:00:00 TS 28.80 -45.40 65
NA 21:00:00 TS 29.15 -44.55 65
NA 1896-11-04 00:00:00 TS 29.50 -43.70 65
NA 03:00:00 TS 29.90 -42.89 65
NA 06:00:00 TS 30.30 -42.10 65
NA 09:00:00 TS 30.58 -41.25 65
NA 12:00:00 TS 31.00 -40.50 65
NA 15:00:00 TS 31.82 -39.95 65
NA 18:00:00 TS 32.80 -39.50 65
NA 21:00:00 TS 33.65 -39.00 65
NA 1896-11-05 00:00:00 TS 34.50 -38.50 65
NA 03:00:00 TS 35.40 -38.00 65
NA 06:00:00 ET 36.30 -37.50 65
NA 09:00:00 ET 37.19 -36.89 65
NA 12:00:00 ET 38.00 -36.50 65
NA 15:00:00 ET 38.69 -36.63 65
NA 18:00:00 ET 39.30 -37.00 65
NA 21:00:00 ET 39.94 -37.13 65
NA 1896-11-06 00:00:00 ET 40.50 -37.50 65
NA 03:00:00 ET 40.94 -38.46 65
NA 06:00:00 ET 41.30 -39.70 65
NA 09:00:00 ET 41.75 -40.95 65
NA 12:00:00 ET 42.00 -42.00 65
NA 15:00:00 ET 41.84 -42.52 65
NA 18:00:00 ET 41.50 -42.80 65
NA 21:00:00 ET 41.25 -43.15 62
NA 1896-11-07 00:00:00 ET 41.00 -43.50 60
NA 03:00:00 ET 40.75 -43.90 60
NA 06:00:00 ET 40.50 -44.30 60
NA 09:00:00 ET 40.22 -44.79 57
NA 12:00:00 ET 40.00 -45.00 55
NA 15:00:00 ET 39.92 -44.63 55
NA 18:00:00 ET 39.90 -44.00 55
NA 21:00:00 ET 39.83 -43.50 52
NA 1896-11-08 00:00:00 ET 39.80 -43.00 50
NA 03:00:00 ET 39.83 -42.50 50
NA 06:00:00 ET 39.90 -42.00 50
NA 09:00:00 ET 39.90 -41.54 50
NA 12:00:00 ET 40.00 -41.00 50
NA 15:00:00 ET 40.31 -40.25 47
NA 18:00:00 ET 40.70 -39.40 45
NA 21:00:00 ET 41.01 -38.62 45
NA 1896-11-09 00:00:00 ET 41.30 -37.70 45
NA 03:00:00 ET 41.60 -36.47 42
NA 06:00:00 ET 41.90 -35.10 40
NA 09:00:00 ET 42.20 -33.79 40
NA 12:00:00 ET 42.50 -32.50 40
NA 15:00:00 ET 42.80 -31.24 37
NA 18:00:00 ET 43.10 -30.00 35

Source Information

Agency Information
USA
TOKYO
CMA
HKO
NEWDELHI
REUNION
BOM
NADI
WELLINGTON
DS824
TD9636
TD9635
NEUMANN
MLC

All available IBTrACS Data

SEASON BASIN SUBBASIN ISO_TIME_________ NATURE LAT LON DIST2LAND LANDFALL IFLAG USA SSHS MLC LAT MLC LON MLC CLASS MLC WIND STORM SPEED STORM DIR
Year degrees north degrees east km km 1 degrees north degrees east kts kts degrees
1896 NA NA 1896-10-30 12:00:00 TS 15.00 -59.00 528 528 _____________O -1 15.00 -59.00 TD 25 10 16
1896 NA NA 15:00:00 TS 15.50 -58.86 583 583 _____________P -1 15.50 -58.86 TD 27 10 16
1896 NA NA 18:00:00 TS 16.00 -58.70 643 643 _____________O -1 16.00 -58.70 TD 30 11 19
1896 NA NA 21:00:00 TS 16.50 -58.51 703 703 _____________P -1 16.50 -58.51 TD 32 11 21
1896 NA NA 1896-10-31 00:00:00 TS 17.00 -58.30 763 763 _____________O -1 17.00 -58.30 TS 35 11 21
1896 NA NA 03:00:00 TS 17.50 -58.10 797 796 _____________P -1 17.50 -58.10 TS 37 11 21
1896 NA NA 06:00:00 TS 18.00 -57.90 814 813 _____________O -1 18.00 -57.90 TS 40 11 20
1896 NA NA 09:00:00 TS 18.50 -57.71 833 833 _____________P -1 18.50 -57.71 TS 45 11 21
1896 NA NA 12:00:00 TS 19.00 -57.50 855 855 _____________O -1 19.00 -57.50 TS 50 11 25
1896 NA NA 15:00:00 TS 19.50 -57.21 891 891 _____________P -1 19.50 -57.21 TS 55 12 29
1896 NA NA 18:00:00 TS 20.00 -56.90 930 930 _____________O -1 20.00 -56.90 TS 60 12 30
1896 NA NA 21:00:00 TS 20.50 -56.60 972 972 _____________P -1 20.50 -56.60 TS 62 12 29
1896 NA NA 1896-11-01 00:00:00 TS 21.00 -56.30 1015 1015 _____________O -1 21.00 -56.30 HU 65 11 29
1896 NA NA 03:00:00 TS 21.50 -56.01 1061 1061 _____________P -1 21.50 -56.01 HU 67 12 29
1896 NA NA 06:00:00 TS 22.00 -55.70 1108 1108 _____________O -1 22.00 -55.70 HU 70 12 30
1896 NA NA 09:00:00 TS 22.52 -55.37 1156 1156 _____________P -1 22.52 -55.37 HU 70 12 33
1896 NA NA 12:00:00 TS 23.00 -55.00 1215 1215 _____________O -1 23.00 -55.00 HU 70 11 41
1896 NA NA 15:00:00 TS 23.36 -54.56 1271 1271 _____________P -1 23.36 -54.56 HU 72 11 50
1896 NA NA 18:00:00 TS 23.70 -54.10 1331 1331 _____________O -1 23.70 -54.10 HU 75 11 49
1896 NA NA 21:00:00 TS 24.09 -53.64 1396 1396 _____________P -1 24.09 -53.64 HU 75 11 46
1896 NA NA 1896-11-02 00:00:00 TS 24.50 -53.20 1451 1451 _____________O -1 24.50 -53.20 HU 75 11 43
1896 NA NA 03:00:00 TS 24.91 -52.80 1507 1507 _____________P -1 24.91 -52.80 HU 72 11 42
1896 NA NA 06:00:00 TS 25.30 -52.40 1563 1563 _____________O -1 25.30 -52.40 HU 70 11 44
1896 NA NA 09:00:00 TS 25.67 -51.97 1619 1619 _____________P -1 25.67 -51.97 HU 70 11 49
1896 NA NA 12:00:00 TS 26.00 -51.50 1679 1679 _____________O -1 26.00 -51.50 HU 70 11 57
1896 NA NA 15:00:00 TS 26.26 -50.96 1739 1739 _____________P -1 26.26 -50.96 HU 67 11 63
1896 NA NA 18:00:00 TS 26.50 -50.40 1802 1802 _____________O -1 26.50 -50.40 HU 65 11 64
1896 NA NA 21:00:00 TS 26.75 -49.85 1866 1866 _____________P -1 26.75 -49.85 HU 65 11 63
1896 NA NA 1896-11-03 00:00:00 TS 27.00 -49.30 1925 1925 _____________O -1 27.00 -49.30 HU 65 11 63
1896 NA NA 03:00:00 TS 27.25 -48.76 1979 1979 _____________P -1 27.25 -48.76 HU 65 11 63
1896 NA NA 06:00:00 TS 27.50 -48.20 2047 2047 _____________O -1 27.50 -48.20 HU 65 11 64
1896 NA NA 09:00:00 TS 27.73 -47.64 2110 2110 _____________P -1 27.73 -47.64 HU 65 12 65
1896 NA NA 12:00:00 TS 28.00 -47.00 2140 2113 _____________O -1 28.00 -47.00 HU 65 14 62
1896 NA NA 15:00:00 TS 28.38 -46.24 2116 2091 _____________P -1 28.38 -46.24 HU 65 16 60
1896 NA NA 18:00:00 TS 28.80 -45.40 2094 2079 _____________O -1 28.80 -45.40 HU 65 17 63
1896 NA NA 21:00:00 TS 29.15 -44.55 2089 2069 _____________P -1 29.15 -44.55 HU 65 16 65
1896 NA NA 1896-11-04 00:00:00 TS 29.50 -43.70 2073 2056 _____________O -1 29.50 -43.70 HU 65 16 63
1896 NA NA 03:00:00 TS 29.90 -42.89 2060 2046 _____________P -1 29.90 -42.89 HU 65 16 60
1896 NA NA 06:00:00 TS 30.30 -42.10 2050 2048 _____________O -1 30.30 -42.10 HU 65 16 64
1896 NA NA 09:00:00 TS 30.58 -41.25 2052 2048 _____________P -1 30.58 -41.25 HU 65 15 63
1896 NA NA 12:00:00 TS 31.00 -40.50 2048 1994 _____________O -1 31.00 -40.50 HU 65 17 42
1896 NA NA 15:00:00 TS 31.82 -39.95 1994 1928 _____________P -1 31.82 -39.95 HU 65 20 25
1896 NA NA 18:00:00 TS 32.80 -39.50 1923 1870 _____________O -1 32.80 -39.50 HU 65 20 24
1896 NA NA 21:00:00 TS 33.65 -39.00 1876 1823 _____________P -1 33.65 -39.00 HU 65 19 26
1896 NA NA 1896-11-05 00:00:00 TS 34.50 -38.50 1823 1776 _____________O -1 34.50 -38.50 HU 65 19 25
1896 NA NA 03:00:00 TS 35.40 -38.00 1774 1730 _____________P -1 35.40 -38.00 HU 65 20 24
1896 NA NA 06:00:00 ET 36.30 -37.50 1730 1698 _____________O -1 36.30 -37.50 EX 65 20 27
1896 NA NA 09:00:00 ET 37.19 -36.89 1696 1662 _____________P -1 37.19 -36.89 EX 65 19 25
1896 NA NA 12:00:00 ET 38.00 -36.50 1662 1604 _____________O -1 38.00 -36.50 EX 65 15 8
1896 NA NA 15:00:00 ET 38.69 -36.63 1604 1536 _____________P -1 38.69 -36.63 EX 65 14 343
1896 NA NA 18:00:00 ET 39.30 -37.00 1536 1488 _____________O -1 39.30 -37.00 EX 65 13 343
1896 NA NA 21:00:00 ET 39.94 -37.13 1488 1422 _____________P -1 39.94 -37.13 EX 65 13 342
1896 NA NA 1896-11-06 00:00:00 ET 40.50 -37.50 1422 1335 _____________O -1 40.50 -37.50 EX 65 14 315
1896 NA NA 03:00:00 ET 40.94 -38.46 1328 1227 _____________P -1 40.94 -38.46 EX 65 18 296
1896 NA NA 06:00:00 ET 41.30 -39.70 1220 1113 _____________O -1 41.30 -39.70 EX 65 20 293
1896 NA NA 09:00:00 ET 41.75 -40.95 1106 1019 _____________P -1 41.75 -40.95 EX 65 19 292
1896 NA NA 12:00:00 ET 42.00 -42.00 1019 992 _____________O -1 42.00 -42.00 EX 65 12 274
1896 NA NA 15:00:00 ET 41.84 -42.52 999 993 _____________P -1 41.84 -42.52 EX 65 8 230
1896 NA NA 18:00:00 ET 41.50 -42.80 1000 994 _____________O -1 41.50 -42.80 EX 65 8 219
1896 NA NA 21:00:00 ET 41.25 -43.15 1003 991 _____________P -1 41.25 -43.15 EX 62 7 226
1896 NA NA 1896-11-07 00:00:00 ET 41.00 -43.50 993 983 _____________O -1 41.00 -43.50 EX 60 8 229
1896 NA NA 03:00:00 ET 40.75 -43.90 983 981 _____________P -1 40.75 -43.90 EX 60 8 231
1896 NA NA 06:00:00 ET 40.50 -44.30 984 975 _____________O -1 40.50 -44.30 EX 60 9 232
1896 NA NA 09:00:00 ET 40.22 -44.79 980 975 _____________P -1 40.22 -44.79 EX 57 7 227
1896 NA NA 12:00:00 ET 40.00 -45.00 986 986 _____________O -1 40.00 -45.00 EX 55 3 159
1896 NA NA 15:00:00 ET 39.92 -44.63 1016 1016 _____________P -1 39.92 -44.63 EX 55 8 97
1896 NA NA 18:00:00 ET 39.90 -44.00 1050 1050 _____________O -1 39.90 -44.00 EX 55 9 96
1896 NA NA 21:00:00 ET 39.83 -43.50 1087 1087 _____________P -1 39.83 -43.50 EX 52 8 97
1896 NA NA 1896-11-08 00:00:00 ET 39.80 -43.00 1116 1116 _____________O -1 39.80 -43.00 EX 50 8 90
1896 NA NA 03:00:00 ET 39.83 -42.50 1146 1144 _____________P -1 39.83 -42.50 EX 50 8 83
1896 NA NA 06:00:00 ET 39.90 -42.00 1169 1169 _____________O -1 39.90 -42.00 EX 50 7 85
1896 NA NA 09:00:00 ET 39.90 -41.54 1200 1200 _____________P -1 39.90 -41.54 EX 50 8 83
1896 NA NA 12:00:00 ET 40.00 -41.00 1224 1223 _____________O -1 40.00 -41.00 EX 50 11 68
1896 NA NA 15:00:00 ET 40.31 -40.25 1247 1246 _____________P -1 40.31 -40.25 EX 47 14 60
1896 NA NA 18:00:00 ET 40.70 -39.40 1279 1279 _____________O -1 40.70 -39.40 EX 45 14 61
1896 NA NA 21:00:00 ET 41.01 -38.62 1315 1315 _____________P -1 41.01 -38.62 EX 45 14 65
1896 NA NA 1896-11-09 00:00:00 ET 41.30 -37.70 1359 1359 _____________O -1 41.30 -37.70 EX 45 17 70
1896 NA NA 03:00:00 ET 41.60 -36.47 1426 1426 _____________P -1 41.60 -36.47 EX 42 20 73
1896 NA NA 06:00:00 ET 41.90 -35.10 1507 1507 _____________O -1 41.90 -35.10 EX 40 21 73
1896 NA NA 09:00:00 ET 42.20 -33.79 1584 1584 _____________P -1 42.20 -33.79 EX 40 20 73
1896 NA NA 12:00:00 ET 42.50 -32.50 1663 1663 _____________O -1 42.50 -32.50 EX 40 20 72
1896 NA NA 15:00:00 ET 42.80 -31.24 1744 1679 _____________P -1 42.80 -31.24 EX 37 19 72
1896 NA NA 18:00:00 ET 43.10 -30.00 1671 _____________O -1 43.10 -30.00 EX 35 19 72